Afua, Brazil
Current Conditions -  °F | °C
As of 6:00 PM on Thursday 27 Nov 2014 (Local Time) from SBMQ Reporting Station
Few Clouds Few Clouds  
Wind Chill: 86°   Ceiling: Unl
Heat Index: 90°   Visibility: 6mi
Dew Point: 70°   Wind: 18mph
Humidity: 58%   Direction: 70°ENE
Pressure: 29.8"   Gusts: NA
Location:  0.16°S, 50.39°W
Report Text: SBMQ 272100Z 07016KT 9999 FEW020 30/21 Q1009
Loading
Personal Weather Stations






























Interactive Weather Map New forecast layout! Learn more

10-Day Weather Forecast

Advertisements
Track Severe Weather on mobile